createdAt,value
2023-01-02T00:00:21.175Z,1001.19
2023-01-02T00:01:12.511Z,1001.14
2023-01-02T00:02:12.528Z,1001.16
2023-01-02T00:03:12.647Z,1001.13
2023-01-02T00:04:12.515Z,1001.09
2023-01-02T00:05:12.557Z,1001.04
2023-01-02T00:06:12.500Z,1000.96
2023-01-02T00:07:12.520Z,1000.99
2023-01-02T00:08:12.508Z,1000.98
2023-01-02T00:09:12.633Z,1000.94
2023-01-02T00:10:12.534Z,1000.94
2023-01-02T00:11:12.511Z,1000.9
2023-01-02T00:12:12.505Z,1000.96
2023-01-02T00:13:12.811Z,1000.96
2023-01-02T00:14:12.515Z,1000.89
2023-01-02T00:15:12.549Z,1000.95
2023-01-02T00:16:12.629Z,1000.88
2023-01-02T00:17:12.846Z,1000.91
2023-01-02T00:18:12.517Z,1000.93
2023-01-02T00:19:12.588Z,1000.92
2023-01-02T00:20:12.530Z,1000.85
2023-01-02T00:21:12.521Z,1000.83
2023-01-02T00:22:12.515Z,1000.82
2023-01-02T00:23:12.511Z,1000.78
2023-01-02T00:24:12.519Z,1000.77
2023-01-02T00:25:12.527Z,1000.82
2023-01-02T00:26:12.507Z,1000.87
2023-01-02T00:27:12.514Z,1000.82
2023-01-02T00:28:12.520Z,1000.89
2023-01-02T00:29:14.601Z,1000.87
2023-01-02T00:30:12.602Z,1000.9
2023-01-02T00:31:12.559Z,1000.82
2023-01-02T00:32:12.523Z,1000.79
2023-01-02T00:33:12.618Z,1000.79
2023-01-02T00:34:12.515Z,1000.81
2023-01-02T00:35:12.521Z,1000.75
2023-01-02T00:36:12.521Z,1000.78
2023-01-02T00:37:12.665Z,1000.75
2023-01-02T00:38:12.509Z,1000.72
2023-01-02T00:39:14.002Z,1000.68
2023-01-02T00:40:12.528Z,1000.72
2023-01-02T00:41:12.504Z,1000.68
2023-01-02T00:42:12.504Z,1000.73
2023-01-02T00:43:12.511Z,1000.69
2023-01-02T00:44:12.583Z,1000.61
2023-01-02T00:45:12.664Z,1000.64
2023-01-02T00:46:15.541Z,1000.64
2023-01-02T00:47:12.506Z,1000.61
2023-01-02T00:48:12.504Z,1000.62
2023-01-02T00:49:12.515Z,1000.58
2023-01-02T00:50:12.538Z,1000.6
2023-01-02T00:51:12.514Z,1000.6
2023-01-02T00:52:12.511Z,1000.65
2023-01-02T00:53:12.515Z,1000.66
2023-01-02T00:54:12.513Z,1000.58
2023-01-02T00:55:12.540Z,1000.68
2023-01-02T00:56:12.504Z,1000.61
2023-01-02T00:57:12.512Z,1000.66
2023-01-02T00:58:12.513Z,1000.8
2023-01-02T00:59:12.522Z,1000.74
2023-01-02T01:00:14.800Z,1000.74
2023-01-02T01:01:12.623Z,1000.71
2023-01-02T01:02:12.555Z,1000.63
2023-01-02T01:03:12.563Z,1000.7
2023-01-02T01:04:12.504Z,1000.64
2023-01-02T01:05:12.529Z,1000.72
2023-01-02T01:06:12.512Z,1000.78
2023-01-02T01:07:12.517Z,1000.77
2023-01-02T01:08:12.518Z,1000.74
2023-01-02T01:09:12.509Z,1000.76
2023-01-02T01:10:12.527Z,1000.74
2023-01-02T01:11:12.508Z,1000.68
2023-01-02T01:12:12.554Z,1000.66
2023-01-02T01:13:12.520Z,1000.69
2023-01-02T01:14:12.603Z,1000.68
2023-01-02T01:15:12.643Z,1000.66
2023-01-02T01:16:12.568Z,1000.68
2023-01-02T01:17:12.583Z,1000.69
2023-01-02T01:18:12.517Z,1000.66
2023-01-02T01:19:12.506Z,1000.66
2023-01-02T01:20:12.524Z,1000.57
2023-01-02T01:21:12.501Z,1000.58
2023-01-02T01:22:12.509Z,1000.63
2023-01-02T01:23:12.523Z,1000.55
2023-01-02T01:24:12.500Z,1000.57
2023-01-02T01:25:12.539Z,1000.56
2023-01-02T01:26:12.753Z,1000.62
2023-01-02T01:27:12.655Z,1000.6
2023-01-02T01:28:12.545Z,1000.64
2023-01-02T01:29:12.728Z,1000.59
2023-01-02T01:30:12.502Z,1000.56
2023-01-02T01:31:12.806Z,1000.68
2023-01-02T01:32:12.500Z,1000.65
2023-01-02T01:33:12.708Z,1000.66
2023-01-02T01:34:12.533Z,1000.7
2023-01-02T01:35:12.830Z,1000.73
2023-01-02T01:36:12.544Z,1000.68
2023-01-02T01:37:12.764Z,1000.61
2023-01-02T01:38:12.596Z,1000.68
2023-01-02T01:39:12.506Z,1000.64
2023-01-02T01:40:12.515Z,1000.65
2023-01-02T01:41:12.574Z,1000.68
2023-01-02T01:42:12.506Z,1000.59
2023-01-02T01:43:12.552Z,1000.63
2023-01-02T01:44:12.522Z,1000.59
2023-01-02T01:45:12.511Z,1000.62
2023-01-02T01:46:12.622Z,1000.65
2023-01-02T01:47:12.504Z,1000.61
2023-01-02T01:48:12.521Z,1000.56
2023-01-02T01:49:12.531Z,1000.57
2023-01-02T01:50:12.503Z,1000.63
2023-01-02T01:51:12.514Z,1000.68
2023-01-02T01:52:12.510Z,1000.69
2023-01-02T01:53:12.503Z,1000.66
2023-01-02T01:54:12.517Z,1000.68
2023-01-02T01:55:12.562Z,1000.68
2023-01-02T01:56:12.510Z,1000.68
2023-01-02T01:57:12.609Z,1000.67
2023-01-02T01:58:12.512Z,1000.68
2023-01-02T01:59:12.517Z,1000.66
2023-01-02T02:00:12.607Z,1000.64
2023-01-02T02:01:12.714Z,1000.63
2023-01-02T02:02:12.668Z,1000.63
2023-01-02T02:03:12.549Z,1000.64
2023-01-02T02:04:12.511Z,1000.62
2023-01-02T02:05:12.520Z,1000.63
2023-01-02T02:06:12.506Z,1000.71
2023-01-02T02:07:12.509Z,1000.7
2023-01-02T02:08:12.506Z,1000.66
2023-01-02T02:09:12.518Z,1000.69
2023-01-02T02:10:12.527Z,1000.73
2023-01-02T02:11:12.499Z,1000.66
2023-01-02T02:12:12.498Z,1000.67
2023-01-02T02:13:12.535Z,1000.7
2023-01-02T02:14:12.530Z,1000.69
2023-01-02T02:15:12.626Z,1000.64
2023-01-02T02:16:12.564Z,1000.66
2023-01-02T02:17:12.522Z,1000.69
2023-01-02T02:18:12.521Z,1000.68
2023-01-02T02:19:12.514Z,1000.65
2023-01-02T02:20:12.523Z,1000.71
2023-01-02T02:21:12.509Z,1000.67
2023-01-02T02:22:12.506Z,1000.67
2023-01-02T02:23:12.502Z,1000.62
2023-01-02T02:24:12.676Z,1000.64
2023-01-02T02:25:12.532Z,1000.62
2023-01-02T02:26:12.508Z,1000.66
2023-01-02T02:27:12.505Z,1000.64
2023-01-02T02:28:12.631Z,1000.68
2023-01-02T02:29:12.506Z,1000.7
2023-01-02T02:30:12.514Z,1000.68
2023-01-02T02:31:12.513Z,1000.81
2023-01-02T02:32:12.515Z,1000.7
2023-01-02T02:33:12.511Z,1000.71
2023-01-02T02:34:12.527Z,1000.66
2023-01-02T02:35:12.503Z,1000.7
2023-01-02T02:36:12.523Z,1000.79
2023-01-02T02:37:12.514Z,1000.72
2023-01-02T02:38:12.514Z,1000.7
2023-01-02T02:39:12.828Z,1000.79
2023-01-02T02:40:12.524Z,1000.75
2023-01-02T02:41:12.525Z,1000.71
2023-01-02T02:42:12.625Z,1000.77
2023-01-02T02:43:12.800Z,1000.76
2023-01-02T02:44:12.524Z,1000.72
2023-01-02T02:45:12.507Z,1000.72
2023-01-02T02:46:12.654Z,1000.72
2023-01-02T02:47:12.519Z,1000.72
2023-01-02T02:48:12.523Z,1000.69
2023-01-02T02:49:12.524Z,1000.69
2023-01-02T02:50:12.722Z,1000.76
2023-01-02T02:51:12.501Z,1000.71
2023-01-02T02:52:12.575Z,1000.71
2023-01-02T02:53:12.549Z,1000.67
2023-01-02T02:54:12.795Z,1000.68
2023-01-02T02:55:12.628Z,1000.68
2023-01-02T02:56:12.524Z,1000.67
2023-01-02T02:57:12.871Z,1000.71
2023-01-02T02:58:12.653Z,1000.67
2023-01-02T02:59:12.648Z,1000.73
2023-01-02T03:00:12.567Z,1000.69
2023-01-02T03:01:12.660Z,1000.7
2023-01-02T03:02:12.826Z,1000.59
2023-01-02T03:03:13.015Z,1000.66
2023-01-02T03:04:12.672Z,1000.64
2023-01-02T03:05:12.937Z,1000.56
2023-01-02T03:06:12.784Z,1000.59
2023-01-02T03:07:13.066Z,1000.58
2023-01-02T03:08:13.349Z,1000.63
2023-01-02T03:09:13.045Z,1000.63
2023-01-02T03:10:12.279Z,1000.59
2023-01-02T03:11:12.573Z,1000.62
2023-01-02T03:12:12.830Z,1000.62
2023-01-02T03:13:12.115Z,1000.52
2023-01-02T03:14:12.403Z,1000.55
2023-01-02T03:15:12.676Z,1000.48
2023-01-02T03:16:12.968Z,1000.51
2023-01-02T03:17:12.208Z,1000.48
2023-01-02T03:18:12.504Z,1000.42
2023-01-02T03:19:12.823Z,1000.38
2023-01-02T03:20:12.962Z,1000.39
2023-01-02T03:21:12.642Z,1000.34
2023-01-02T03:22:12.526Z,1000.4
2023-01-02T03:23:12.769Z,1000.36
2023-01-02T03:24:12.537Z,1000.38
2023-01-02T03:25:12.509Z,1000.43
2023-01-02T03:26:12.528Z,1000.47
2023-01-02T03:27:12.503Z,1000.5
2023-01-02T03:28:12.508Z,1000.55
2023-01-02T03:29:12.514Z,1000.5
2023-01-02T03:30:12.516Z,1000.52
2023-01-02T03:31:12.575Z,1000.55
2023-01-02T03:32:12.522Z,1000.54
2023-01-02T03:33:12.568Z,1000.61
2023-01-02T03:34:12.508Z,1000.58
2023-01-02T03:35:12.518Z,1000.51
2023-01-02T03:36:12.527Z,1000.52
2023-01-02T03:37:12.508Z,1000.59
2023-01-02T03:38:12.514Z,1000.61
2023-01-02T03:39:12.515Z,1000.59
2023-01-02T03:40:12.731Z,1000.61
2023-01-02T03:41:12.576Z,1000.51
2023-01-02T03:42:12.503Z,1000.58
2023-01-02T03:43:12.547Z,1000.54
2023-01-02T03:44:12.522Z,1000.6
2023-01-02T03:45:12.515Z,1000.47
2023-01-02T03:46:12.568Z,1000.6
2023-01-02T03:47:12.651Z,1000.56
2023-01-02T03:48:12.518Z,1000.58
2023-01-02T03:49:12.540Z,1000.61
2023-01-02T03:50:12.514Z,1000.59
2023-01-02T03:51:12.859Z,1000.56
2023-01-02T03:52:12.510Z,1000.56
2023-01-02T03:53:12.505Z,1000.5
2023-01-02T03:54:12.513Z,1000.52
2023-01-02T03:55:12.512Z,1000.52
2023-01-02T03:56:12.537Z,1000.49
2023-01-02T03:57:12.504Z,1000.38
2023-01-02T03:58:12.511Z,1000.4
2023-01-02T03:59:12.513Z,1000.44
2023-01-02T04:00:12.510Z,1000.47
2023-01-02T04:01:12.717Z,1000.54
2023-01-02T04:02:12.715Z,1000.55
2023-01-02T04:03:12.651Z,1000.53
2023-01-02T04:04:12.518Z,1000.55
2023-01-02T04:05:12.522Z,1000.51
2023-01-02T04:06:12.663Z,1000.52
2023-01-02T04:07:12.505Z,1000.59
2023-01-02T04:08:12.511Z,1000.61
2023-01-02T04:09:12.510Z,1000.7
2023-01-02T04:10:12.505Z,1000.74
2023-01-02T04:11:12.518Z,1000.71
2023-01-02T04:12:12.505Z,1000.73
2023-01-02T04:13:12.511Z,1000.68
2023-01-02T04:14:12.523Z,1000.72
2023-01-02T04:15:12.522Z,1000.73
2023-01-02T04:16:12.581Z,1000.87
2023-01-02T04:17:12.515Z,1000.74
2023-01-02T04:18:12.581Z,1000.7
2023-01-02T04:19:12.521Z,1000.7
2023-01-02T04:20:12.549Z,1000.64
2023-01-02T04:21:12.507Z,1000.65
2023-01-02T04:22:12.502Z,1000.64
2023-01-02T04:23:12.515Z,1000.63
2023-01-02T04:24:12.504Z,1000.65
2023-01-02T04:25:12.512Z,1000.73
2023-01-02T04:26:12.507Z,1000.76
2023-01-02T04:27:12.511Z,1000.74
2023-01-02T04:28:12.515Z,1000.79
2023-01-02T04:29:12.521Z,1000.8
2023-01-02T04:30:12.514Z,1000.74
2023-01-02T04:31:12.557Z,1000.76
2023-01-02T04:32:12.516Z,1000.76
2023-01-02T04:33:12.558Z,1000.76
2023-01-02T04:34:12.530Z,1000.78
2023-01-02T04:35:12.612Z,1000.79
2023-01-02T04:36:12.532Z,1000.77
2023-01-02T04:37:12.519Z,1000.71
2023-01-02T04:38:12.507Z,1000.66
2023-01-02T04:39:12.505Z,1000.73
2023-01-02T04:40:12.519Z,1000.64
2023-01-02T04:41:12.532Z,1000.69
2023-01-02T04:42:12.517Z,1000.65
2023-01-02T04:43:12.507Z,1000.73
2023-01-02T04:44:12.579Z,1000.68
2023-01-02T04:45:12.532Z,1000.83
2023-01-02T04:46:12.577Z,1000.88
2023-01-02T04:47:21.572Z,1000.89
2023-01-02T04:48:12.509Z,1000.92
2023-01-02T04:49:12.599Z,1000.92
2023-01-02T04:50:12.519Z,1000.95
2023-01-02T04:51:12.541Z,1000.94
2023-01-02T04:52:12.502Z,1000.97
2023-01-02T04:53:12.510Z,1000.9
2023-01-02T04:54:12.520Z,1000.9
2023-01-02T04:55:12.532Z,1000.96
2023-01-02T04:56:12.502Z,1000.9
2023-01-02T04:57:12.513Z,1000.83
2023-01-02T04:58:12.526Z,1000.89
2023-01-02T04:59:12.512Z,1000.83
2023-01-02T05:00:14.472Z,1000.94
2023-01-02T05:01:14.612Z,1000.83
2023-01-02T05:02:13.840Z,1000.77
2023-01-02T05:03:13.103Z,1000.77
2023-01-02T05:04:13.389Z,1000.7
2023-01-02T05:05:12.975Z,1000.73
2023-01-02T05:06:13.172Z,1000.76
2023-01-02T05:07:13.109Z,1000.73
2023-01-02T05:08:17.122Z,1000.69
2023-01-02T05:09:12.867Z,1000.72
2023-01-02T05:10:12.739Z,1000.79
2023-01-02T05:11:12.562Z,1000.83
2023-01-02T05:12:12.780Z,1000.88
2023-01-02T05:13:12.945Z,1000.93
2023-01-02T05:14:12.838Z,1000.89
2023-01-02T05:15:12.563Z,1000.98
2023-01-02T05:16:12.669Z,1000.93
2023-01-02T05:17:12.689Z,1000.93
2023-01-02T05:18:12.664Z,1000.94
2023-01-02T05:19:12.590Z,1001.06
2023-01-02T05:20:12.601Z,1001.01
2023-01-02T05:21:12.590Z,1000.96
2023-01-02T05:22:12.592Z,1001.06
2023-01-02T05:23:12.555Z,1001.11
2023-01-02T05:24:12.568Z,1001.11
2023-01-02T05:25:12.589Z,1001.12
2023-01-02T05:26:12.561Z,1001.08
2023-01-02T05:27:12.590Z,1000.98
2023-01-02T05:28:12.557Z,1000.97
2023-01-02T05:29:12.566Z,1001.04
2023-01-02T05:30:12.720Z,1001.05
2023-01-02T05:31:12.622Z,1001.05
2023-01-02T05:32:12.686Z,1001.08
2023-01-02T05:33:12.586Z,1001.06
2023-01-02T05:34:12.561Z,1001.09
2023-01-02T05:35:12.586Z,1001.13
2023-01-02T05:36:12.591Z,1001.15
2023-01-02T05:37:12.558Z,1001.14
2023-01-02T05:38:12.584Z,1001.16
2023-01-02T05:39:12.585Z,1001.21
2023-01-02T05:40:12.589Z,1001.19
2023-01-02T05:41:12.584Z,1001.22
2023-01-02T05:42:12.584Z,1001.22
2023-01-02T05:43:12.631Z,1001.21
2023-01-02T05:44:12.586Z,1001.19
2023-01-02T05:45:12.562Z,1001.22
2023-01-02T05:46:12.714Z,1001.19
2023-01-02T05:47:18.569Z,1001.17
2023-01-02T05:48:12.578Z,1001.19
2023-01-02T05:49:12.563Z,1001.16
2023-01-02T05:50:12.708Z,1001.05
2023-01-02T05:51:12.554Z,1001.23
2023-01-02T05:52:12.569Z,1001.22
2023-01-02T05:53:12.584Z,1001.25
2023-01-02T05:54:12.660Z,1001.25
2023-01-02T05:55:12.638Z,1001.26
2023-01-02T05:56:12.604Z,1001.21
2023-01-02T05:57:12.552Z,1001.24
2023-01-02T05:58:12.634Z,1001.26
2023-01-02T05:59:12.596Z,1001.22
2023-01-02T06:00:12.579Z,1001.25
2023-01-02T06:01:12.650Z,1001.32
2023-01-02T06:02:12.674Z,1001.28
2023-01-02T06:03:12.675Z,1001.26
2023-01-02T06:04:19.910Z,1001.26
2023-01-02T06:05:12.551Z,1001.23
2023-01-02T06:06:12.565Z,1001.26
2023-01-02T06:07:12.582Z,1001.26
2023-01-02T06:08:12.577Z,1001.26
2023-01-02T06:09:12.596Z,1001.28
2023-01-02T06:10:12.579Z,1001.29
2023-01-02T06:11:12.648Z,1001.3
2023-01-02T06:12:12.583Z,1001.32
2023-01-02T06:13:12.737Z,1001.29
2023-01-02T06:14:12.698Z,1001.25
2023-01-02T06:15:12.579Z,1001.26
2023-01-02T06:16:12.660Z,1001.33
2023-01-02T06:17:12.623Z,1001.35
2023-01-02T06:18:12.746Z,1001.42
2023-01-02T06:19:12.686Z,1001.28
2023-01-02T06:20:12.660Z,1001.35
2023-01-02T06:21:12.782Z,1001.37
2023-01-02T06:22:12.558Z,1001.4
2023-01-02T06:23:12.580Z,1001.38
2023-01-02T06:24:12.573Z,1001.38
2023-01-02T06:25:12.683Z,1001.45
2023-01-02T06:26:12.627Z,1001.44
2023-01-02T06:27:12.612Z,1001.44
2023-01-02T06:28:12.672Z,1001.5
2023-01-02T06:29:12.914Z,1001.48
2023-01-02T06:30:12.571Z,1001.49
2023-01-02T06:31:12.667Z,1001.47
2023-01-02T06:32:12.654Z,1001.56
2023-01-02T06:33:12.572Z,1001.51
2023-01-02T06:34:12.642Z,1001.55
2023-01-02T06:35:12.587Z,1001.51
2023-01-02T06:36:12.590Z,1001.51
2023-01-02T06:37:13.628Z,1001.55
2023-01-02T06:38:12.743Z,1001.52
2023-01-02T06:39:12.692Z,1001.51
2023-01-02T06:40:12.845Z,1001.54
2023-01-02T06:41:12.925Z,1001.5
2023-01-02T06:42:11.900Z,1001.57
2023-01-02T06:43:12.180Z,1001.59
2023-01-02T06:44:12.543Z,1001.55
2023-01-02T06:45:12.734Z,1001.61
2023-01-02T06:46:12.344Z,1001.57
2023-01-02T06:47:12.284Z,1001.62
2023-01-02T06:48:12.633Z,1001.58
2023-01-02T06:49:12.850Z,1001.62
2023-01-02T06:50:12.359Z,1001.56
2023-01-02T06:51:12.649Z,1001.6
2023-01-02T06:52:12.985Z,1001.61
2023-01-02T06:53:13.113Z,1001.62
2023-01-02T06:54:13.391Z,1001.6
2023-01-02T06:55:12.742Z,1001.6
2023-01-02T06:56:12.630Z,1001.63
2023-01-02T06:57:12.731Z,1001.6
2023-01-02T06:58:20.436Z,1001.58
2023-01-02T06:59:12.842Z,1001.6
2023-01-02T07:00:12.582Z,1001.58
2023-01-02T07:01:12.653Z,1001.66
2023-01-02T07:02:12.664Z,1001.59
2023-01-02T07:03:12.575Z,1001.61
2023-01-02T07:04:12.575Z,1001.58
2023-01-02T07:05:12.581Z,1001.57
2023-01-02T07:06:12.619Z,1001.5
2023-01-02T07:07:12.627Z,1001.53
2023-01-02T07:08:12.632Z,1001.56
2023-01-02T07:09:12.579Z,1001.58
2023-01-02T07:10:12.721Z,1001.56
2023-01-02T07:11:12.757Z,1001.58
2023-01-02T07:12:12.655Z,1001.63
2023-01-02T07:13:12.850Z,1001.71
2023-01-02T07:14:12.734Z,1001.65
2023-01-02T07:15:12.832Z,1001.68
2023-01-02T07:16:12.915Z,1001.67
2023-01-02T07:17:12.932Z,1001.75
2023-01-02T07:18:12.595Z,1001.69
2023-01-02T07:19:12.615Z,1001.75
2023-01-02T07:20:12.624Z,1001.71
2023-01-02T07:21:12.595Z,1001.7
2023-01-02T07:22:12.618Z,1001.67
2023-01-02T07:23:12.726Z,1001.71
2023-01-02T07:24:12.567Z,1001.77
2023-01-02T07:25:12.820Z,1001.76
2023-01-02T07:26:12.750Z,1001.75
2023-01-02T07:27:12.817Z,1001.69
2023-01-02T07:28:12.590Z,1001.71
2023-01-02T07:29:12.578Z,1001.73
2023-01-02T07:30:12.534Z,1001.75
2023-01-02T07:31:12.697Z,1001.74
2023-01-02T07:32:12.762Z,1001.79
2023-01-02T07:33:12.684Z,1001.69
2023-01-02T07:34:12.530Z,1001.79
2023-01-02T07:35:12.808Z,1001.74
2023-01-02T07:36:12.804Z,1001.76
2023-01-02T07:37:13.169Z,1001.81
2023-01-02T07:38:12.647Z,1001.77
2023-01-02T07:39:12.508Z,1001.75
2023-01-02T07:40:12.609Z,1001.74
2023-01-02T07:41:12.512Z,1001.73
2023-01-02T07:42:12.660Z,1001.74
2023-01-02T07:43:12.541Z,1001.76
2023-01-02T07:44:12.725Z,1001.75
2023-01-02T07:45:12.544Z,1001.78
2023-01-02T07:46:12.670Z,1001.8
2023-01-02T07:47:12.510Z,1001.8
2023-01-02T07:48:12.515Z,1001.79
2023-01-02T07:49:12.510Z,1001.78
2023-01-02T07:50:12.528Z,1001.84
2023-01-02T07:51:12.511Z,1001.83
2023-01-02T07:52:12.692Z,1001.79
2023-01-02T07:53:12.514Z,1001.86
2023-01-02T07:54:12.511Z,1001.93
2023-01-02T07:55:12.529Z,1001.87
2023-01-02T07:56:12.516Z,1001.86
2023-01-02T07:57:12.522Z,1001.84
2023-01-02T07:58:12.517Z,1001.9
2023-01-02T07:59:12.514Z,1001.89
2023-01-02T08:00:12.525Z,1001.91
2023-01-02T08:01:12.648Z,1001.89
2023-01-02T08:02:12.636Z,1001.96
2023-01-02T08:03:12.610Z,1001.99
2023-01-02T08:04:12.608Z,1002.02
2023-01-02T08:05:12.511Z,1002.03
2023-01-02T08:06:12.525Z,1002.01
2023-01-02T08:07:12.517Z,1001.98
2023-01-02T08:08:12.520Z,1001.99
2023-01-02T08:09:12.518Z,1002.01
2023-01-02T08:10:12.507Z,1002.07
2023-01-02T08:11:12.521Z,1002.06
2023-01-02T08:12:12.505Z,1002.11
2023-01-02T08:13:12.512Z,1002.09
2023-01-02T08:14:14.879Z,1002.11
2023-01-02T08:15:12.509Z,1002.15
2023-01-02T08:16:12.515Z,1002.17
2023-01-02T08:17:12.598Z,1002.17
2023-01-02T08:18:12.516Z,1002.19
2023-01-02T08:19:12.510Z,1002.22
2023-01-02T08:20:12.630Z,1002.22
2023-01-02T08:21:12.511Z,1002.18
2023-01-02T08:22:12.525Z,1002.25
2023-01-02T08:23:12.522Z,1002.26
2023-01-02T08:24:12.518Z,1002.27
2023-01-02T08:25:12.537Z,1002.36
2023-01-02T08:26:12.661Z,1002.35
2023-01-02T08:27:12.541Z,1002.29
2023-01-02T08:28:12.507Z,1002.3
2023-01-02T08:29:12.512Z,1002.25
2023-01-02T08:30:12.517Z,1002.35
2023-01-02T08:31:12.546Z,1002.38
2023-01-02T08:32:12.534Z,1002.38
2023-01-02T08:33:12.548Z,1002.42
2023-01-02T08:34:12.714Z,1002.48
2023-01-02T08:35:12.950Z,1002.42
2023-01-02T08:36:12.696Z,1002.49
2023-01-02T08:37:12.517Z,1002.48
2023-01-02T08:38:12.799Z,1002.47
2023-01-02T08:39:12.541Z,1002.46
2023-01-02T08:40:12.774Z,1002.45
2023-01-02T08:41:12.678Z,1002.46
2023-01-02T08:42:12.916Z,1002.52
2023-01-02T08:43:12.617Z,1002.51
2023-01-02T08:44:12.514Z,1002.53
2023-01-02T08:45:12.735Z,1002.53
2023-01-02T08:46:12.995Z,1002.63
2023-01-02T08:47:13.219Z,1002.6
2023-01-02T08:48:21.795Z,1002.63
2023-01-02T08:49:12.894Z,1002.7
2023-01-02T08:50:12.518Z,1002.65
2023-01-02T08:51:12.514Z,1002.66
2023-01-02T08:52:12.518Z,1002.7
2023-01-02T08:53:15.938Z,1002.72
2023-01-02T08:54:12.524Z,1002.78
2023-01-02T08:55:12.531Z,1002.88
2023-01-02T08:56:12.512Z,1002.88
2023-01-02T08:57:12.517Z,1002.87
2023-01-02T08:58:12.513Z,1002.97
2023-01-02T08:59:12.547Z,1002.99
2023-01-02T09:00:12.526Z,1002.96
2023-01-02T09:01:12.557Z,1002.97
2023-01-02T09:02:12.767Z,1003.03
2023-01-02T09:03:12.552Z,1003.06
2023-01-02T09:04:15.512Z,1003.08
2023-01-02T09:05:12.515Z,1003.1
2023-01-02T09:06:21.454Z,1003.15
2023-01-02T09:07:12.505Z,1003.09
2023-01-02T09:08:12.518Z,1003.15
2023-01-02T09:09:15.510Z,1003.17
2023-01-02T09:10:12.530Z,1003.16
2023-01-02T09:11:12.506Z,1003.23
2023-01-02T09:12:12.618Z,1003.26
2023-01-02T09:13:12.731Z,1003.34
2023-01-02T09:14:12.711Z,1003.32
2023-01-02T09:15:12.746Z,1003.35
2023-01-02T09:16:12.884Z,1003.35
2023-01-02T09:17:12.951Z,1003.37
2023-01-02T09:18:12.521Z,1003.41
2023-01-02T09:19:12.566Z,1003.44
2023-01-02T09:20:12.530Z,1003.53
2023-01-02T09:21:12.512Z,1003.58
2023-01-02T09:22:12.514Z,1003.63
2023-01-02T09:23:12.858Z,1003.58
2023-01-02T09:24:12.526Z,1003.69
2023-01-02T09:25:12.529Z,1003.73
2023-01-02T09:26:12.528Z,1003.84
2023-01-02T09:27:12.509Z,1003.87
2023-01-02T09:28:12.512Z,1003.84
2023-01-02T09:29:12.507Z,1003.79
2023-01-02T09:30:12.513Z,1003.86
2023-01-02T09:31:15.533Z,1003.85
2023-01-02T09:32:12.503Z,1003.81
2023-01-02T09:33:12.494Z,1003.86
2023-01-02T09:34:12.517Z,1003.83
2023-01-02T09:35:12.596Z,1003.89
2023-01-02T09:36:12.615Z,1003.91
2023-01-02T09:37:12.498Z,1003.9
2023-01-02T09:38:12.545Z,1003.93
2023-01-02T09:39:12.501Z,1003.94
2023-01-02T09:40:12.499Z,1003.98
2023-01-02T09:41:12.508Z,1003.97
2023-01-02T09:42:12.505Z,1003.99
2023-01-02T09:43:12.533Z,1004
2023-01-02T09:44:12.505Z,1003.99
2023-01-02T09:45:12.551Z,1004
2023-01-02T09:46:12.519Z,1004
2023-01-02T09:47:12.499Z,1004.04
2023-01-02T09:48:12.530Z,1004.05
2023-01-02T09:49:12.656Z,1004.03
2023-01-02T09:50:12.506Z,1004.1
2023-01-02T09:51:12.502Z,1004.08
2023-01-02T09:52:12.500Z,1004
2023-01-02T09:53:12.764Z,1004.13
2023-01-02T09:54:12.501Z,1004.12
2023-01-02T09:55:12.597Z,1004.08
2023-01-02T09:56:15.332Z,1004.1
2023-01-02T09:57:12.820Z,1004.15
2023-01-02T09:58:12.604Z,1004.15
2023-01-02T09:59:12.509Z,1004.11
2023-01-02T10:00:12.568Z,1004.14
2023-01-02T10:01:12.570Z,1004.1
2023-01-02T10:02:12.515Z,1004.12
2023-01-02T10:03:12.666Z,1004.17
2023-01-02T10:04:12.539Z,1004.16
2023-01-02T10:05:12.538Z,1004.18
2023-01-02T10:06:12.509Z,1004.19
2023-01-02T10:07:12.521Z,1004.26
2023-01-02T10:08:12.514Z,1004.29
2023-01-02T10:09:12.578Z,1004.28
2023-01-02T10:10:12.511Z,1004.27
2023-01-02T10:11:12.588Z,1004.35
2023-01-02T10:12:12.512Z,1004.42
2023-01-02T10:13:12.618Z,1004.48
2023-01-02T10:14:33.831Z,1004.55
2023-01-02T10:15:12.752Z,1004.6
2023-01-02T10:16:13.063Z,1004.58
2023-01-02T10:17:11.967Z,1004.62
2023-01-02T10:18:12.248Z,1004.6
2023-01-02T10:19:12.532Z,1004.61
2023-01-02T10:20:12.869Z,1004.64
2023-01-02T10:21:12.087Z,1004.55
2023-01-02T10:22:12.355Z,1004.64
2023-01-02T10:23:12.704Z,1004.66
2023-01-02T10:24:12.111Z,1004.56
2023-01-02T10:25:12.384Z,1004.57
2023-01-02T10:26:12.673Z,1004.49
2023-01-02T10:27:12.986Z,1004.53
2023-01-02T10:28:13.417Z,1004.54
2023-01-02T10:29:12.544Z,1004.57
2023-01-02T10:30:12.630Z,1004.55
2023-01-02T10:31:12.584Z,1004.53
2023-01-02T10:32:12.509Z,1004.57
2023-01-02T10:33:12.521Z,1004.63
2023-01-02T10:34:12.745Z,1004.65
2023-01-02T10:35:12.515Z,1004.68
2023-01-02T10:36:12.514Z,1004.69
2023-01-02T10:37:12.508Z,1004.68
2023-01-02T10:38:12.600Z,1004.72
2023-01-02T10:39:12.523Z,1004.77
2023-01-02T10:40:12.532Z,1004.74
2023-01-02T10:41:12.599Z,1004.73
2023-01-02T10:42:12.512Z,1004.76
2023-01-02T10:43:12.509Z,1004.75
2023-01-02T10:44:12.550Z,1004.83
2023-01-02T10:45:12.505Z,1004.76
2023-01-02T10:46:12.599Z,1004.76
2023-01-02T10:47:12.522Z,1004.82
2023-01-02T10:48:12.505Z,1004.77
2023-01-02T10:49:12.560Z,1004.81
2023-01-02T10:50:12.517Z,1004.77
2023-01-02T10:51:12.804Z,1004.85
2023-01-02T10:52:12.514Z,1004.85
2023-01-02T10:53:12.510Z,1004.9
2023-01-02T10:54:12.667Z,1004.9
2023-01-02T10:55:12.516Z,1004.88
2023-01-02T10:56:12.702Z,1004.83
2023-01-02T10:57:12.672Z,1004.94
2023-01-02T10:58:12.771Z,1004.88
2023-01-02T10:59:12.541Z,1004.94
2023-01-02T11:00:12.789Z,1004.9
2023-01-02T11:01:12.900Z,1004.95
2023-01-02T11:02:13.002Z,1004.98
2023-01-02T11:03:12.686Z,1004.98
2023-01-02T11:04:12.622Z,1005.01
2023-01-02T11:05:12.873Z,1005.02
2023-01-02T11:06:27.155Z,1005.03
2023-01-02T11:07:12.735Z,1005
2023-01-02T11:08:12.979Z,1005.05
2023-01-02T11:09:12.906Z,1005.05
2023-01-02T11:10:13.514Z,1005.02
2023-01-02T11:11:13.919Z,1005.06
2023-01-02T11:12:12.732Z,1005.04
2023-01-02T11:13:12.505Z,1005.08
2023-01-02T11:14:12.767Z,1005.14
2023-01-02T11:15:12.680Z,1005.1
2023-01-02T11:16:12.842Z,1005.15
2023-01-02T11:17:12.605Z,1005.11
2023-01-02T11:18:12.513Z,1005.13
2023-01-02T11:19:12.669Z,1005.13
2023-01-02T11:20:12.508Z,1005.11
2023-01-02T11:21:12.509Z,1005.09
2023-01-02T11:22:12.573Z,1005.12
2023-01-02T11:23:12.514Z,1005.14
2023-01-02T11:24:12.692Z,1005.16
2023-01-02T11:25:12.510Z,1005.16
2023-01-02T11:26:12.513Z,1005.24
2023-01-02T11:27:12.513Z,1005.28
2023-01-02T11:28:12.514Z,1005.21
2023-01-02T11:29:12.527Z,1005.25
2023-01-02T11:30:12.518Z,1005.24
2023-01-02T11:31:12.644Z,1005.22
2023-01-02T11:32:12.616Z,1005.24
2023-01-02T11:33:12.528Z,1005.32
2023-01-02T11:34:12.589Z,1005.31
2023-01-02T11:35:12.514Z,1005.33
2023-01-02T11:36:12.526Z,1005.34
2023-01-02T11:37:12.519Z,1005.26
2023-01-02T11:38:12.677Z,1005.27
2023-01-02T11:39:12.527Z,1005.28
2023-01-02T11:40:12.504Z,1005.31
2023-01-02T11:41:12.513Z,1005.32
2023-01-02T11:42:12.514Z,1005.3
2023-01-02T11:43:12.515Z,1005.33
2023-01-02T11:44:20.545Z,1005.31
2023-01-02T11:45:12.513Z,1005.36
2023-01-02T11:46:12.555Z,1005.37
2023-01-02T11:47:12.526Z,1005.38
2023-01-02T11:48:12.510Z,1005.39
2023-01-02T11:49:12.702Z,1005.38
2023-01-02T11:50:12.516Z,1005.36
2023-01-02T11:51:18.519Z,1005.36
2023-01-02T11:52:12.537Z,1005.4
2023-01-02T11:53:12.515Z,1005.46
2023-01-02T11:54:12.518Z,1005.43
2023-01-02T11:55:12.519Z,1005.51
2023-01-02T11:56:12.515Z,1005.47
2023-01-02T11:57:19.521Z,1005.5
2023-01-02T11:58:12.514Z,1005.53
2023-01-02T11:59:12.510Z,1005.55
2023-01-02T12:00:12.603Z,1005.61
2023-01-02T12:01:12.544Z,1005.67
2023-01-02T12:02:12.620Z,1005.58
2023-01-02T12:03:19.685Z,1005.55
2023-01-02T12:04:12.510Z,1005.51
2023-01-02T12:05:12.521Z,1005.5
2023-01-02T12:06:12.521Z,1005.52
2023-01-02T12:07:12.503Z,1005.48
2023-01-02T12:08:12.515Z,1005.53